sensor_id;sensor_type;location;lat;lon;timestamp;temperature;humidity
11055;DHT22;5580;50.106;8.702;2023-01-01T00:00:09;15.00;99.90
11055;DHT22;5580;50.106;8.702;2023-01-01T00:02:35;15.00;99.90
11055;DHT22;5580;50.106;8.702;2023-01-01T00:05:01;15.00;99.90
11055;DHT22;5580;50.106;8.702;2023-01-01T00:07:28;14.90;99.90
11055;DHT22;5580;50.106;8.702;2023-01-01T00:09:53;14.90;99.90
11055;DHT22;5580;50.106;8.702;2023-01-01T00:12:38;14.90;99.90
11055;DHT22;5580;50.106;8.702;2023-01-01T00:15:03;14.80;99.90
11055;DHT22;5580;50.106;8.702;2023-01-01T00:17:29;14.90;99.90
11055;DHT22;5580;50.106;8.702;2023-01-01T00:19:55;14.90;99.90
11055;DHT22;5580;50.106;8.702;2023-01-01T00:22:20;14.90;99.90
11055;DHT22;5580;50.106;8.702;2023-01-01T00:24:46;14.90;99.90
11055;DHT22;5580;50.106;8.702;2023-01-01T00:27:12;14.90;99.90
11055;DHT22;5580;50.106;8.702;2023-01-01T00:29:37;14.90;99.90
11055;DHT22;5580;50.106;8.702;2023-01-01T00:32:03;14.90;99.90
11055;DHT22;5580;50.106;8.702;2023-01-01T00:34:29;14.80;99.90
11055;DHT22;5580;50.106;8.702;2023-01-01T00:36:55;14.80;99.90
11055;DHT22;5580;50.106;8.702;2023-01-01T00:39:21;14.70;99.90
11055;DHT22;5580;50.106;8.702;2023-01-01T00:41:46;14.70;99.90
11055;DHT22;5580;50.106;8.702;2023-01-01T00:44:12;14.70;99.90
11055;DHT22;5580;50.106;8.702;2023-01-01T00:46:37;14.70;99.90
11055;DHT22;5580;50.106;8.702;2023-01-01T00:49:03;14.70;99.90
11055;DHT22;5580;50.106;8.702;2023-01-01T00:51:28;14.70;99.90
11055;DHT22;5580;50.106;8.702;2023-01-01T00:53:54;14.70;99.90
11055;DHT22;5580;50.106;8.702;2023-01-01T00:56:20;14.70;99.90
11055;DHT22;5580;50.106;8.702;2023-01-01T00:58:45;14.60;99.90
11055;DHT22;5580;50.106;8.702;2023-01-01T01:01:11;14.60;99.90
11055;DHT22;5580;50.106;8.702;2023-01-01T01:03:37;14.60;99.90
11055;DHT22;5580;50.106;8.702;2023-01-01T01:08:30;14.60;99.90
11055;DHT22;5580;50.106;8.702;2023-01-01T01:11:08;14.60;99.90
11055;DHT22;5580;50.106;8.702;2023-01-01T01:13:34;14.60;99.90
11055;DHT22;5580;50.106;8.702;2023-01-01T01:16:00;14.60;99.90
11055;DHT22;5580;50.106;8.702;2023-01-01T01:18:32;14.60;99.90
11055;DHT22;5580;50.106;8.702;2023-01-01T01:21:04;14.60;99.90
11055;DHT22;5580;50.106;8.702;2023-01-01T01:23:30;14.60;99.90
11055;DHT22;5580;50.106;8.702;2023-01-01T01:26:15;14.50;99.90
11055;DHT22;5580;50.106;8.702;2023-01-01T01:28:42;14.60;99.90
11055;DHT22;5580;50.106;8.702;2023-01-01T01:31:08;14.50;99.90
11055;DHT22;5580;50.106;8.702;2023-01-01T01:33:34;14.50;99.90
11055;DHT22;5580;50.106;8.702;2023-01-01T01:36:01;14.40;99.90
11055;DHT22;5580;50.106;8.702;2023-01-01T01:38:27;14.40;99.90
11055;DHT22;5580;50.106;8.702;2023-01-01T01:40:52;14.40;99.90
11055;DHT22;5580;50.106;8.702;2023-01-01T01:43:23;14.40;99.90
11055;DHT22;5580;50.106;8.702;2023-01-01T01:45:53;14.40;99.90
11055;DHT22;5580;50.106;8.702;2023-01-01T01:48:20;14.40;99.90
11055;DHT22;5580;50.106;8.702;2023-01-01T01:50:47;14.40;99.90
11055;DHT22;5580;50.106;8.702;2023-01-01T01:53:18;14.40;99.90
11055;DHT22;5580;50.106;8.702;2023-01-01T01:55:52;14.40;99.90
11055;DHT22;5580;50.106;8.702;2023-01-01T01:58:19;14.30;99.90
11055;DHT22;5580;50.106;8.702;2023-01-01T02:00:45;14.40;99.90
11055;DHT22;5580;50.106;8.702;2023-01-01T02:03:17;14.30;99.90
11055;DHT22;5580;50.106;8.702;2023-01-01T02:05:44;14.30;99.90
11055;DHT22;5580;50.106;8.702;2023-01-01T02:08:11;14.20;99.90
11055;DHT22;5580;50.106;8.702;2023-01-01T02:10:39;14.20;99.90
11055;DHT22;5580;50.106;8.702;2023-01-01T02:13:04;14.10;99.90
11055;DHT22;5580;50.106;8.702;2023-01-01T02:15:38;14.10;99.90
11055;DHT22;5580;50.106;8.702;2023-01-01T02:18:17;14.20;99.90
11055;DHT22;5580;50.106;8.702;2023-01-01T02:20:52;14.10;99.90
11055;DHT22;5580;50.106;8.702;2023-01-01T02:31:28;14.00;99.90
11055;DHT22;5580;50.106;8.702;2023-01-01T02:33:58;14.00;99.90
11055;DHT22;5580;50.106;8.702;2023-01-01T02:36:26;14.00;99.90
11055;DHT22;5580;50.106;8.702;2023-01-01T02:38:54;13.90;99.90
11055;DHT22;5580;50.106;8.702;2023-01-01T02:41:24;13.90;99.90
11055;DHT22;5580;50.106;8.702;2023-01-01T02:43:51;13.80;99.90
11055;DHT22;5580;50.106;8.702;2023-01-01T02:46:16;13.70;99.90
11055;DHT22;5580;50.106;8.702;2023-01-01T02:48:44;13.70;99.90
11055;DHT22;5580;50.106;8.702;2023-01-01T02:54:04;13.70;99.90
11055;DHT22;5580;50.106;8.702;2023-01-01T02:56:42;13.80;99.90
11055;DHT22;5580;50.106;8.702;2023-01-01T03:05:28;13.70;99.90
11055;DHT22;5580;50.106;8.702;2023-01-01T03:08:14;13.70;99.90
11055;DHT22;5580;50.106;8.702;2023-01-01T03:11:09;13.60;99.90
11055;DHT22;5580;50.106;8.702;2023-01-01T03:21:09;13.50;99.90
11055;DHT22;5580;50.106;8.702;2023-01-01T03:23:41;13.40;99.90
11055;DHT22;5580;50.106;8.702;2023-01-01T03:26:11;13.50;99.90
11055;DHT22;5580;50.106;8.702;2023-01-01T03:28:45;13.50;99.90
11055;DHT22;5580;50.106;8.702;2023-01-01T03:31:14;13.50;99.90
11055;DHT22;5580;50.106;8.702;2023-01-01T03:33:45;13.50;99.90
11055;DHT22;5580;50.106;8.702;2023-01-01T03:36:23;13.50;99.90
11055;DHT22;5580;50.106;8.702;2023-01-01T03:39:03;13.60;99.90
11055;DHT22;5580;50.106;8.702;2023-01-01T03:42:09;13.60;99.90
11055;DHT22;5580;50.106;8.702;2023-01-01T03:45:08;13.60;99.90
11055;DHT22;5580;50.106;8.702;2023-01-01T03:47:35;13.60;99.90
11055;DHT22;5580;50.106;8.702;2023-01-01T03:50:02;13.60;99.90
11055;DHT22;5580;50.106;8.702;2023-01-01T03:55:16;13.60;99.90
11055;DHT22;5580;50.106;8.702;2023-01-01T04:00:33;13.60;99.90
11055;DHT22;5580;50.106;8.702;2023-01-01T04:03:13;13.60;99.90
11055;DHT22;5580;50.106;8.702;2023-01-01T04:05:41;13.60;99.90
11055;DHT22;5580;50.106;8.702;2023-01-01T04:08:09;13.60;99.90
11055;DHT22;5580;50.106;8.702;2023-01-01T04:10:37;13.60;99.90
11055;DHT22;5580;50.106;8.702;2023-01-01T04:13:05;13.60;99.90
11055;DHT22;5580;50.106;8.702;2023-01-01T04:15:31;13.60;99.90
11055;DHT22;5580;50.106;8.702;2023-01-01T04:17:57;13.60;99.90
11055;DHT22;5580;50.106;8.702;2023-01-01T04:20:23;13.60;99.90
11055;DHT22;5580;50.106;8.702;2023-01-01T04:22:49;13.60;99.90
11055;DHT22;5580;50.106;8.702;2023-01-01T04:25:16;13.70;99.90
11055;DHT22;5580;50.106;8.702;2023-01-01T04:27:44;13.70;99.90
11055;DHT22;5580;50.106;8.702;2023-01-01T04:30:11;13.70;99.90
11055;DHT22;5580;50.106;8.702;2023-01-01T04:32:38;13.70;99.90
11055;DHT22;5580;50.106;8.702;2023-01-01T04:35:05;13.70;99.90
11055;DHT22;5580;50.106;8.702;2023-01-01T04:37:30;13.70;99.90
11055;DHT22;5580;50.106;8.702;2023-01-01T04:39:56;13.70;99.90
11055;DHT22;5580;50.106;8.702;2023-01-01T04:42:21;13.70;99.90
11055;DHT22;5580;50.106;8.702;2023-01-01T04:44:47;13.70;99.90
11055;DHT22;5580;50.106;8.702;2023-01-01T04:47:13;13.60;99.90
11055;DHT22;5580;50.106;8.702;2023-01-01T04:49:38;13.60;99.90
11055;DHT22;5580;50.106;8.702;2023-01-01T04:52:04;13.60;99.90
11055;DHT22;5580;50.106;8.702;2023-01-01T04:54:29;13.60;99.90
11055;DHT22;5580;50.106;8.702;2023-01-01T04:56:55;13.60;99.90
11055;DHT22;5580;50.106;8.702;2023-01-01T04:59:21;13.60;99.90
11055;DHT22;5580;50.106;8.702;2023-01-01T05:01:46;13.60;99.90
11055;DHT22;5580;50.106;8.702;2023-01-01T05:04:13;13.60;99.90
11055;DHT22;5580;50.106;8.702;2023-01-01T05:06:39;13.50;99.90
11055;DHT22;5580;50.106;8.702;2023-01-01T05:09:05;13.50;99.90
11055;DHT22;5580;50.106;8.702;2023-01-01T05:11:31;13.50;99.90
11055;DHT22;5580;50.106;8.702;2023-01-01T05:14:00;13.50;99.90
11055;DHT22;5580;50.106;8.702;2023-01-01T05:16:28;13.60;99.90
11055;DHT22;5580;50.106;8.702;2023-01-01T05:18:54;13.50;99.90
11055;DHT22;5580;50.106;8.702;2023-01-01T05:21:23;13.50;99.90
11055;DHT22;5580;50.106;8.702;2023-01-01T05:23:53;13.50;99.90
11055;DHT22;5580;50.106;8.702;2023-01-01T05:26:22;13.40;99.90
11055;DHT22;5580;50.106;8.702;2023-01-01T05:28:48;13.40;99.90
11055;DHT22;5580;50.106;8.702;2023-01-01T05:31:19;13.40;99.90
11055;DHT22;5580;50.106;8.702;2023-01-01T05:33:45;13.40;99.90
11055;DHT22;5580;50.106;8.702;2023-01-01T05:36:18;13.40;99.90
11055;DHT22;5580;50.106;8.702;2023-01-01T05:38:44;13.40;99.90
11055;DHT22;5580;50.106;8.702;2023-01-01T05:41:12;13.40;99.90
11055;DHT22;5580;50.106;8.702;2023-01-01T05:43:38;13.40;99.90
11055;DHT22;5580;50.106;8.702;2023-01-01T05:46:06;13.40;99.90
11055;DHT22;5580;50.106;8.702;2023-01-01T05:48:32;13.30;99.90
11055;DHT22;5580;50.106;8.702;2023-01-01T05:51:05;13.40;99.90
11055;DHT22;5580;50.106;8.702;2023-01-01T05:53:32;13.30;99.90
11055;DHT22;5580;50.106;8.702;2023-01-01T05:55:58;13.30;99.90
11055;DHT22;5580;50.106;8.702;2023-01-01T05:58:25;13.30;99.90
11055;DHT22;5580;50.106;8.702;2023-01-01T06:00:51;13.30;99.90
11055;DHT22;5580;50.106;8.702;2023-01-01T06:03:16;13.30;99.90
11055;DHT22;5580;50.106;8.702;2023-01-01T06:05:42;13.30;99.90
11055;DHT22;5580;50.106;8.702;2023-01-01T06:08:07;13.30;99.90
11055;DHT22;5580;50.106;8.702;2023-01-01T06:10:33;13.30;99.90
11055;DHT22;5580;50.106;8.702;2023-01-01T06:12:59;13.30;99.90
11055;DHT22;5580;50.106;8.702;2023-01-01T06:15:25;13.30;99.90
11055;DHT22;5580;50.106;8.702;2023-01-01T06:17:51;13.30;99.90
11055;DHT22;5580;50.106;8.702;2023-01-01T06:20:17;13.30;99.90
11055;DHT22;5580;50.106;8.702;2023-01-01T06:22:43;13.30;99.90
11055;DHT22;5580;50.106;8.702;2023-01-01T06:25:09;13.40;99.90
11055;DHT22;5580;50.106;8.702;2023-01-01T06:27:35;13.40;99.90
11055;DHT22;5580;50.106;8.702;2023-01-01T06:30:02;13.40;99.90
11055;DHT22;5580;50.106;8.702;2023-01-01T06:32:28;13.40;99.90
11055;DHT22;5580;50.106;8.702;2023-01-01T06:34:53;13.40;99.90
11055;DHT22;5580;50.106;8.702;2023-01-01T06:37:19;13.40;99.90
11055;DHT22;5580;50.106;8.702;2023-01-01T06:39:45;13.40;99.90
11055;DHT22;5580;50.106;8.702;2023-01-01T06:42:10;13.40;99.90
11055;DHT22;5580;50.106;8.702;2023-01-01T06:44:36;13.40;99.90
11055;DHT22;5580;50.106;8.702;2023-01-01T06:47:01;13.40;99.90
11055;DHT22;5580;50.106;8.702;2023-01-01T06:49:27;13.40;99.90
11055;DHT22;5580;50.106;8.702;2023-01-01T06:51:53;13.40;99.90
11055;DHT22;5580;50.106;8.702;2023-01-01T06:54:18;13.40;99.90
11055;DHT22;5580;50.106;8.702;2023-01-01T06:56:44;13.40;99.90
11055;DHT22;5580;50.106;8.702;2023-01-01T06:59:09;13.40;99.90
11055;DHT22;5580;50.106;8.702;2023-01-01T07:01:36;13.40;99.90
11055;DHT22;5580;50.106;8.702;2023-01-01T07:04:06;13.40;99.90
11055;DHT22;5580;50.106;8.702;2023-01-01T07:06:33;13.40;99.90
11055;DHT22;5580;50.106;8.702;2023-01-01T07:08:59;13.30;99.90
11055;DHT22;5580;50.106;8.702;2023-01-01T07:11:25;13.30;99.90
11055;DHT22;5580;50.106;8.702;2023-01-01T07:13:51;13.30;99.90
11055;DHT22;5580;50.106;8.702;2023-01-01T07:16:17;13.30;99.90
11055;DHT22;5580;50.106;8.702;2023-01-01T07:18:42;13.20;99.90
11055;DHT22;5580;50.106;8.702;2023-01-01T07:21:45;13.20;99.90
11055;DHT22;5580;50.106;8.702;2023-01-01T07:24:13;13.20;99.90
11055;DHT22;5580;50.106;8.702;2023-01-01T07:26:39;13.10;99.90
11055;DHT22;5580;50.106;8.702;2023-01-01T07:29:06;13.10;99.90
11055;DHT22;5580;50.106;8.702;2023-01-01T07:31:36;13.10;99.90
11055;DHT22;5580;50.106;8.702;2023-01-01T07:34:08;13.10;99.90
11055;DHT22;5580;50.106;8.702;2023-01-01T07:36:33;13.10;99.90
11055;DHT22;5580;50.106;8.702;2023-01-01T07:38:59;13.10;99.90
11055;DHT22;5580;50.106;8.702;2023-01-01T07:41:25;13.10;99.90
11055;DHT22;5580;50.106;8.702;2023-01-01T07:43:50;13.10;99.90
11055;DHT22;5580;50.106;8.702;2023-01-01T07:46:16;13.10;99.90
11055;DHT22;5580;50.106;8.702;2023-01-01T07:48:43;13.20;99.90
11055;DHT22;5580;50.106;8.702;2023-01-01T07:51:09;13.20;99.90
11055;DHT22;5580;50.106;8.702;2023-01-01T07:53:34;13.20;99.90
11055;DHT22;5580;50.106;8.702;2023-01-01T07:56:00;13.20;99.90
11055;DHT22;5580;50.106;8.702;2023-01-01T07:58:26;13.10;99.90
11055;DHT22;5580;50.106;8.702;2023-01-01T08:00:51;13.10;99.90
11055;DHT22;5580;50.106;8.702;2023-01-01T08:03:17;13.10;99.90
11055;DHT22;5580;50.106;8.702;2023-01-01T08:05:43;13.10;99.90
11055;DHT22;5580;50.106;8.702;2023-01-01T08:08:09;13.10;99.90
11055;DHT22;5580;50.106;8.702;2023-01-01T08:10:35;13.10;99.90
11055;DHT22;5580;50.106;8.702;2023-01-01T08:13:05;13.10;99.90
11055;DHT22;5580;50.106;8.702;2023-01-01T08:15:31;13.20;99.90
11055;DHT22;5580;50.106;8.702;2023-01-01T08:17:58;13.20;99.90
11055;DHT22;5580;50.106;8.702;2023-01-01T08:20:25;13.20;99.90
11055;DHT22;5580;50.106;8.702;2023-01-01T08:22:52;13.20;99.90
11055;DHT22;5580;50.106;8.702;2023-01-01T08:25:17;13.30;99.90
11055;DHT22;5580;50.106;8.702;2023-01-01T08:27:43;13.30;99.90
11055;DHT22;5580;50.106;8.702;2023-01-01T08:30:10;13.30;99.90
11055;DHT22;5580;50.106;8.702;2023-01-01T08:32:36;13.40;99.90
11055;DHT22;5580;50.106;8.702;2023-01-01T08:35:02;13.40;99.90
11055;DHT22;5580;50.106;8.702;2023-01-01T08:37:31;13.40;99.90
11055;DHT22;5580;50.106;8.702;2023-01-01T08:39:56;13.40;99.90
11055;DHT22;5580;50.106;8.702;2023-01-01T08:42:22;13.40;99.90
11055;DHT22;5580;50.106;8.702;2023-01-01T08:44:48;13.40;99.90
11055;DHT22;5580;50.106;8.702;2023-01-01T08:47:17;13.40;99.90
11055;DHT22;5580;50.106;8.702;2023-01-01T08:49:43;13.50;99.90
11055;DHT22;5580;50.106;8.702;2023-01-01T08:52:09;13.50;99.90
11055;DHT22;5580;50.106;8.702;2023-01-01T08:54:34;13.50;99.90
11055;DHT22;5580;50.106;8.702;2023-01-01T08:57:00;13.50;99.90
11055;DHT22;5580;50.106;8.702;2023-01-01T08:59:25;13.60;99.90
11055;DHT22;5580;50.106;8.702;2023-01-01T09:01:51;13.60;99.90
11055;DHT22;5580;50.106;8.702;2023-01-01T09:04:16;13.70;99.90
11055;DHT22;5580;50.106;8.702;2023-01-01T09:06:42;13.70;99.90
11055;DHT22;5580;50.106;8.702;2023-01-01T09:09:07;13.70;99.90
11055;DHT22;5580;50.106;8.702;2023-01-01T09:11:33;13.80;99.90
11055;DHT22;5580;50.106;8.702;2023-01-01T09:13:59;13.90;99.90
11055;DHT22;5580;50.106;8.702;2023-01-01T09:16:25;13.90;99.90
11055;DHT22;5580;50.106;8.702;2023-01-01T09:18:50;13.90;99.90
11055;DHT22;5580;50.106;8.702;2023-01-01T09:21:16;13.80;99.90
11055;DHT22;5580;50.106;8.702;2023-01-01T09:23:41;13.90;99.90
11055;DHT22;5580;50.106;8.702;2023-01-01T09:26:09;13.90;99.90
11055;DHT22;5580;50.106;8.702;2023-01-01T09:28:35;14.00;99.90
11055;DHT22;5580;50.106;8.702;2023-01-01T09:31:02;14.00;99.90
11055;DHT22;5580;50.106;8.702;2023-01-01T09:33:31;14.00;99.90
11055;DHT22;5580;50.106;8.702;2023-01-01T09:38:49;13.90;99.90
11055;DHT22;5580;50.106;8.702;2023-01-01T09:46:53;13.90;99.90
11055;DHT22;5580;50.106;8.702;2023-01-01T09:49:30;13.90;99.90
11055;DHT22;5580;50.106;8.702;2023-01-01T09:51:57;14.00;99.90
11055;DHT22;5580;50.106;8.702;2023-01-01T09:54:31;14.00;99.90
11055;DHT22;5580;50.106;8.702;2023-01-01T09:56:59;14.10;99.90
11055;DHT22;5580;50.106;8.702;2023-01-01T09:59:25;14.10;99.90
11055;DHT22;5580;50.106;8.702;2023-01-01T10:07:38;14.20;99.90
11055;DHT22;5580;50.106;8.702;2023-01-01T10:10:40;14.20;99.90
11055;DHT22;5580;50.106;8.702;2023-01-01T10:13:26;14.20;99.90
11055;DHT22;5580;50.106;8.702;2023-01-01T10:15:59;14.30;99.90
11055;DHT22;5580;50.106;8.702;2023-01-01T10:18:30;14.30;99.90
11055;DHT22;5580;50.106;8.702;2023-01-01T10:21:17;14.30;99.90
11055;DHT22;5580;50.106;8.702;2023-01-01T10:23:47;14.40;99.90
11055;DHT22;5580;50.106;8.702;2023-01-01T10:26:17;14.50;99.90
11055;DHT22;5580;50.106;8.702;2023-01-01T10:31:51;14.50;99.90
11055;DHT22;5580;50.106;8.702;2023-01-01T10:34:23;14.60;99.90
11055;DHT22;5580;50.106;8.702;2023-01-01T10:36:53;14.60;99.90
11055;DHT22;5580;50.106;8.702;2023-01-01T10:39:19;14.70;99.90
11055;DHT22;5580;50.106;8.702;2023-01-01T10:41:45;14.70;99.90
11055;DHT22;5580;50.106;8.702;2023-01-01T10:44:12;14.70;99.90
11055;DHT22;5580;50.106;8.702;2023-01-01T10:46:43;14.70;99.90
11055;DHT22;5580;50.106;8.702;2023-01-01T10:49:12;14.70;99.90
11055;DHT22;5580;50.106;8.702;2023-01-01T10:51:43;14.70;99.90
11055;DHT22;5580;50.106;8.702;2023-01-01T10:54:36;14.80;99.90
11055;DHT22;5580;50.106;8.702;2023-01-01T10:57:19;14.80;99.90
11055;DHT22;5580;50.106;8.702;2023-01-01T10:59:46;14.80;99.90
11055;DHT22;5580;50.106;8.702;2023-01-01T11:02:22;14.70;99.90
11055;DHT22;5580;50.106;8.702;2023-01-01T11:04:49;14.80;99.90
11055;DHT22;5580;50.106;8.702;2023-01-01T11:07:28;14.80;99.90
11055;DHT22;5580;50.106;8.702;2023-01-01T11:09:59;14.80;99.90
11055;DHT22;5580;50.106;8.702;2023-01-01T11:12:29;14.80;99.90
11055;DHT22;5580;50.106;8.702;2023-01-01T11:14:56;14.90;99.90
11055;DHT22;5580;50.106;8.702;2023-01-01T11:17:28;14.90;99.90
11055;DHT22;5580;50.106;8.702;2023-01-01T11:19:56;14.90;99.90
11055;DHT22;5580;50.106;8.702;2023-01-01T11:22:39;15.00;99.90
11055;DHT22;5580;50.106;8.702;2023-01-01T11:27:42;15.00;99.90
11055;DHT22;5580;50.106;8.702;2023-01-01T11:30:25;15.00;99.90
11055;DHT22;5580;50.106;8.702;2023-01-01T11:32:59;15.10;99.90
11055;DHT22;5580;50.106;8.702;2023-01-01T11:35:28;15.10;99.90
11055;DHT22;5580;50.106;8.702;2023-01-01T11:37:55;15.10;99.90
11055;DHT22;5580;50.106;8.702;2023-01-01T11:40:26;15.10;99.90
11055;DHT22;5580;50.106;8.702;2023-01-01T11:42:58;15.20;99.90
11055;DHT22;5580;50.106;8.702;2023-01-01T11:45:32;15.20;99.90
11055;DHT22;5580;50.106;8.702;2023-01-01T11:48:00;15.20;99.90
11055;DHT22;5580;50.106;8.702;2023-01-01T11:50:32;15.30;99.90
11055;DHT22;5580;50.106;8.702;2023-01-01T12:01:06;15.30;99.90
11055;DHT22;5580;50.106;8.702;2023-01-01T12:03:40;15.30;99.90
11055;DHT22;5580;50.106;8.702;2023-01-01T12:06:29;15.40;99.90
11055;DHT22;5580;50.106;8.702;2023-01-01T12:09:39;15.40;99.90
11055;DHT22;5580;50.106;8.702;2023-01-01T12:12:17;15.30;99.90
11055;DHT22;5580;50.106;8.702;2023-01-01T12:15:03;15.30;99.90
11055;DHT22;5580;50.106;8.702;2023-01-01T12:17:43;15.40;99.90
11055;DHT22;5580;50.106;8.702;2023-01-01T12:20:47;15.30;99.90
11055;DHT22;5580;50.106;8.702;2023-01-01T12:23:07;15.30;99.90
11055;DHT22;5580;50.106;8.702;2023-01-01T12:25:43;15.30;99.90
11055;DHT22;5580;50.106;8.702;2023-01-01T12:28:43;15.30;99.90
11055;DHT22;5580;50.106;8.702;2023-01-01T12:31:23;15.40;99.90
11055;DHT22;5580;50.106;8.702;2023-01-01T12:37:05;15.30;99.90
11055;DHT22;5580;50.106;8.702;2023-01-01T12:45:28;15.40;99.90
11055;DHT22;5580;50.106;8.702;2023-01-01T12:59:02;15.40;99.90
11055;DHT22;5580;50.106;8.702;2023-01-01T13:01:31;15.40;99.90
11055;DHT22;5580;50.106;8.702;2023-01-01T13:04:11;15.40;99.90
11055;DHT22;5580;50.106;8.702;2023-01-01T13:06:45;15.50;99.90
11055;DHT22;5580;50.106;8.702;2023-01-01T13:09:21;15.50;99.90
11055;DHT22;5580;50.106;8.702;2023-01-01T13:11:56;15.50;99.90
11055;DHT22;5580;50.106;8.702;2023-01-01T13:14:23;15.50;99.90
11055;DHT22;5580;50.106;8.702;2023-01-01T13:16:53;15.50;99.90
11055;DHT22;5580;50.106;8.702;2023-01-01T13:19:33;15.50;99.90
11055;DHT22;5580;50.106;8.702;2023-01-01T13:54:58;15.40;99.90
11055;DHT22;5580;50.106;8.702;2023-01-01T14:03:23;15.50;99.90
11055;DHT22;5580;50.106;8.702;2023-01-01T14:06:01;15.50;99.90
11055;DHT22;5580;50.106;8.702;2023-01-01T14:08:28;15.40;99.90
11055;DHT22;5580;50.106;8.702;2023-01-01T14:10:55;15.40;99.90
11055;DHT22;5580;50.106;8.702;2023-01-01T14:13:21;15.50;99.90
11055;DHT22;5580;50.106;8.702;2023-01-01T14:16:03;15.50;99.90
11055;DHT22;5580;50.106;8.702;2023-01-01T14:18:46;15.50;99.90
11055;DHT22;5580;50.106;8.702;2023-01-01T14:21:18;15.50;99.90
11055;DHT22;5580;50.106;8.702;2023-01-01T14:23:47;15.50;99.90
11055;DHT22;5580;50.106;8.702;2023-01-01T14:26:22;15.50;99.90
11055;DHT22;5580;50.106;8.702;2023-01-01T14:28:52;15.50;99.90
11055;DHT22;5580;50.106;8.702;2023-01-01T14:31:21;15.50;99.90
11055;DHT22;5580;50.106;8.702;2023-01-01T14:33:47;15.40;99.90
11055;DHT22;5580;50.106;8.702;2023-01-01T14:38:52;15.40;99.90
11055;DHT22;5580;50.106;8.702;2023-01-01T14:41:35;15.50;99.90
11055;DHT22;5580;50.106;8.702;2023-01-01T14:46:29;15.40;99.90
11055;DHT22;5580;50.106;8.702;2023-01-01T14:48:57;15.40;99.90
11055;DHT22;5580;50.106;8.702;2023-01-01T14:51:26;15.40;99.90
11055;DHT22;5580;50.106;8.702;2023-01-01T14:53:56;15.40;99.90
11055;DHT22;5580;50.106;8.702;2023-01-01T14:56:34;15.40;99.90
11055;DHT22;5580;50.106;8.702;2023-01-01T14:59:21;15.50;99.90
11055;DHT22;5580;50.106;8.702;2023-01-01T15:02:18;15.50;99.90
11055;DHT22;5580;50.106;8.702;2023-01-01T15:04:45;15.50;99.90
11055;DHT22;5580;50.106;8.702;2023-01-01T15:07:21;15.40;99.90
11055;DHT22;5580;50.106;8.702;2023-01-01T15:09:48;15.50;99.90
11055;DHT22;5580;50.106;8.702;2023-01-01T15:12:14;15.40;99.90
11055;DHT22;5580;50.106;8.702;2023-01-01T15:14:43;15.40;99.90
11055;DHT22;5580;50.106;8.702;2023-01-01T15:17:15;15.40;99.90
11055;DHT22;5580;50.106;8.702;2023-01-01T15:19:43;15.40;99.90
11055;DHT22;5580;50.106;8.702;2023-01-01T15:22:29;15.30;99.90
11055;DHT22;5580;50.106;8.702;2023-01-01T15:24:56;15.30;99.90
11055;DHT22;5580;50.106;8.702;2023-01-01T15:27:34;15.30;99.90
11055;DHT22;5580;50.106;8.702;2023-01-01T15:30:02;15.30;99.90
11055;DHT22;5580;50.106;8.702;2023-01-01T15:35:00;15.20;99.90
11055;DHT22;5580;50.106;8.702;2023-01-01T15:39:58;15.20;99.90
11055;DHT22;5580;50.106;8.702;2023-01-01T15:42:36;15.20;99.90
11055;DHT22;5580;50.106;8.702;2023-01-01T15:47:51;15.20;99.90
11055;DHT22;5580;50.106;8.702;2023-01-01T15:52:49;15.20;99.90
11055;DHT22;5580;50.106;8.702;2023-01-01T15:55:16;15.30;99.90
11055;DHT22;5580;50.106;8.702;2023-01-01T15:57:49;15.30;99.90
11055;DHT22;5580;50.106;8.702;2023-01-01T16:00:36;15.30;99.90
11055;DHT22;5580;50.106;8.702;2023-01-01T16:03:17;15.40;99.90
11055;DHT22;5580;50.106;8.702;2023-01-01T16:05:49;15.40;99.90
11055;DHT22;5580;50.106;8.702;2023-01-01T16:08:15;15.40;99.90
11055;DHT22;5580;50.106;8.702;2023-01-01T16:10:41;15.40;99.90
11055;DHT22;5580;50.106;8.702;2023-01-01T16:13:07;15.40;99.90
11055;DHT22;5580;50.106;8.702;2023-01-01T16:15:34;15.40;99.90
11055;DHT22;5580;50.106;8.702;2023-01-01T16:17:59;15.40;99.90
11055;DHT22;5580;50.106;8.702;2023-01-01T16:20:25;15.40;99.90
11055;DHT22;5580;50.106;8.702;2023-01-01T16:22:51;15.40;99.90
11055;DHT22;5580;50.106;8.702;2023-01-01T16:25:21;15.40;99.90
11055;DHT22;5580;50.106;8.702;2023-01-01T16:27:47;15.50;99.90
11055;DHT22;5580;50.106;8.702;2023-01-01T16:30:13;15.50;99.90
11055;DHT22;5580;50.106;8.702;2023-01-01T16:32:39;15.50;99.90
11055;DHT22;5580;50.106;8.702;2023-01-01T16:35:09;15.40;99.90
11055;DHT22;5580;50.106;8.702;2023-01-01T16:37:35;15.50;99.90
11055;DHT22;5580;50.106;8.702;2023-01-01T16:40:01;15.40;99.90
11055;DHT22;5580;50.106;8.702;2023-01-01T16:42:26;15.40;99.90
11055;DHT22;5580;50.106;8.702;2023-01-01T16:44:52;15.50;99.90
11055;DHT22;5580;50.106;8.702;2023-01-01T16:47:18;15.50;99.90
11055;DHT22;5580;50.106;8.702;2023-01-01T16:49:45;15.40;99.90
11055;DHT22;5580;50.106;8.702;2023-01-01T16:52:10;15.40;99.90
11055;DHT22;5580;50.106;8.702;2023-01-01T16:54:36;15.40;99.90
11055;DHT22;5580;50.106;8.702;2023-01-01T16:57:01;15.40;99.90
11055;DHT22;5580;50.106;8.702;2023-01-01T16:59:27;15.30;99.90
11055;DHT22;5580;50.106;8.702;2023-01-01T17:01:53;15.30;99.90
11055;DHT22;5580;50.106;8.702;2023-01-01T17:04:18;15.30;99.90
11055;DHT22;5580;50.106;8.702;2023-01-01T17:06:44;15.30;99.90
11055;DHT22;5580;50.106;8.702;2023-01-01T17:09:09;15.30;99.90
11055;DHT22;5580;50.106;8.702;2023-01-01T17:11:35;15.20;99.90
11055;DHT22;5580;50.106;8.702;2023-01-01T17:14:01;15.20;99.90
11055;DHT22;5580;50.106;8.702;2023-01-01T17:16:30;15.20;99.90
11055;DHT22;5580;50.106;8.702;2023-01-01T17:18:57;15.20;99.90
11055;DHT22;5580;50.106;8.702;2023-01-01T17:21:22;15.20;99.90
11055;DHT22;5580;50.106;8.702;2023-01-01T17:23:48;15.20;99.90
11055;DHT22;5580;50.106;8.702;2023-01-01T17:26:16;15.10;99.90
11055;DHT22;5580;50.106;8.702;2023-01-01T17:28:44;15.00;99.90
11055;DHT22;5580;50.106;8.702;2023-01-01T17:31:16;15.00;99.90
11055;DHT22;5580;50.106;8.702;2023-01-01T17:33:42;15.00;99.90
11055;DHT22;5580;50.106;8.702;2023-01-01T17:36:09;14.90;99.90
11055;DHT22;5580;50.106;8.702;2023-01-01T17:38:35;14.90;99.90
11055;DHT22;5580;50.106;8.702;2023-01-01T17:43:32;14.90;99.90
11055;DHT22;5580;50.106;8.702;2023-01-01T17:46:11;14.90;99.90
11055;DHT22;5580;50.106;8.702;2023-01-01T17:48:38;14.90;99.90
11055;DHT22;5580;50.106;8.702;2023-01-01T17:51:04;15.00;99.90
11055;DHT22;5580;50.106;8.702;2023-01-01T17:53:30;14.90;99.90
11055;DHT22;5580;50.106;8.702;2023-01-01T17:55:56;14.90;99.90
11055;DHT22;5580;50.106;8.702;2023-01-01T17:58:22;14.90;99.90
11055;DHT22;5580;50.106;8.702;2023-01-01T18:00:47;14.90;99.90
11055;DHT22;5580;50.106;8.702;2023-01-01T18:03:15;14.90;99.90
11055;DHT22;5580;50.106;8.702;2023-01-01T18:05:40;14.90;99.90
11055;DHT22;5580;50.106;8.702;2023-01-01T18:08:06;14.90;99.90
11055;DHT22;5580;50.106;8.702;2023-01-01T18:10:32;14.90;99.90
11055;DHT22;5580;50.106;8.702;2023-01-01T18:12:58;15.00;99.90
11055;DHT22;5580;50.106;8.702;2023-01-01T18:15:23;15.00;99.90